»·PEaware :: N585DC KSNA-KAVX

N585DC :: KSNA-KAVX

FLIGHT INFORMATION

Flight Status: Arrived
Operator: Privately registered:
United States
More flights under this callsign
Pilot: Giorgi G. (17211)
Aircraft: CESSNA 172 SKYHAWK
(C172)
More flights by this aircraft type
Origin: KSNA John Wayne-Orange Co
United States
Destination: KAVX Catalina
United States
More flights between these airports :: More routes between these airports
Route: +
File this flight plan on PilotEdge
Remarks:
Altitude:
(Current/Filed)
3,000ft
Speed:
(Current/Filed)
0kts
Departed: 03-Dec-17 09:02 AM
Arrived: 03-Dec-17 09:24 AM
Distance/Time
Traveled:
32nm/0:22
Distance/Time
To Go:
Arrived

Flight Plot

Page will automatically refresh every two minutes.


Map Options




Map Legend


Flown Route
Filed Route
Departure Airport
Arrival Airport
Navaid (VOR, NDB)
Fix

Horizontal Profiles

Position Reports

Time Latitude Longitude Heading Altitude Ground
Speed
03-Dec-17 08:50 33.672478 -117.867200 210 60ft 0kts
03-Dec-17 08:51 33.672478 -117.867200 210 60ft 0kts
03-Dec-17 08:52 33.672478 -117.867200 210 60ft 0kts
03-Dec-17 08:53 33.672478 -117.867200 210 60ft 0kts
03-Dec-17 08:54 33.672478 -117.867200 210 60ft 0kts
03-Dec-17 08:55 33.672375 -117.867538 290 60ft 2kts
03-Dec-17 08:56 33.673496 -117.867524 29 60ft 3kts
03-Dec-17 08:57 33.675856 -117.865979 28 60ft 14kts
03-Dec-17 08:58 33.679331 -117.863783 22 60ft 2kts
03-Dec-17 08:59 33.679999 -117.863649 297 60ft 0kts
03-Dec-17 09:00 33.680758 -117.863014 237 60ft 0kts
03-Dec-17 09:01 33.680757 -117.863017 236 60ft 0kts
03-Dec-17 09:02 33.680756 -117.863017 236 60ft 0kts
03-Dec-17 09:03 33.680757 -117.863017 236 60ft 0kts
03-Dec-17 09:04 33.680717 -117.863061 231 60ft 2kts
03-Dec-17 09:05 33.680713 -117.863156 304 60ft 0kts
03-Dec-17 09:06 33.680713 -117.863156 304 60ft 0kts
03-Dec-17 09:07 33.670955 -117.870232 213 360ft 78kts
03-Dec-17 09:08 33.658088 -117.894074 241 1141ft 94kts
03-Dec-17 09:09 33.644799 -117.924226 242 1507ft 115kts
03-Dec-17 09:10 33.629816 -117.958116 242 1498ft 114kts
03-Dec-17 09:11 33.614311 -117.990951 234 1498ft 113kts
03-Dec-17 09:12 33.597181 -118.022704 236 1515ft 113kts
03-Dec-17 09:13 33.579779 -118.054406 237 1517ft 114kts
03-Dec-17 09:14 33.562956 -118.086885 241 1517ft 114kts
03-Dec-17 09:15 33.549862 -118.121501 241 1517ft 114kts
03-Dec-17 09:16 33.534994 -118.155287 242 1518ft 114kts
03-Dec-17 09:17 33.519647 -118.188745 240 1519ft 114kts
03-Dec-17 09:18 33.503492 -118.221792 240 1520ft 114kts
03-Dec-17 09:19 33.487798 -118.253992 240 1959ft 113kts
03-Dec-17 09:20 33.472407 -118.285391 240 2440ft 104kts
03-Dec-17 09:21 33.457967 -118.314220 240 2921ft 100kts
03-Dec-17 09:22 33.443224 -118.342959 240 3237ft 103kts
03-Dec-17 09:23 33.428987 -118.370379 240 3233ft 93kts
03-Dec-17 09:24 33.410358 -118.394940 229 3408ft 106kts
03-Dec-17 09:25 33.406064 -118.421235 294 2696ft 90kts
03-Dec-17 09:26 33.402530 -118.430546 61 2583ft 84kts
03-Dec-17 09:27 33.416307 -118.410064 27 2433ft 68kts
03-Dec-17 09:28 33.407883 -118.410837 234 1696ft 62kts
03-Dec-17 09:29 33.404372 -118.415016 171 1606ft 20kts
03-Dec-17 09:30 33.403442 -118.415799 145 1606ft 0kts
03-Dec-17 09:31 33.403442 -118.415799 145 1606ft 0kts
03-Dec-17 09:32 33.403442 -118.415799 145 1606ft 0kts
03-Dec-17 09:33 33.403442 -118.415799 145 1606ft 0kts
03-Dec-17 09:34 33.403442 -118.415799 145 1606ft 0kts
03-Dec-17 09:35 33.403442 -118.415799 145 1606ft 0kts
03-Dec-17 09:36 33.403442 -118.415799 145 1606ft 0kts
03-Dec-17 09:37 33.403442 -118.415799 145 1606ft 0kts
03-Dec-17 09:38 33.403442 -118.415799 145 1606ft 0kts
03-Dec-17 09:39 33.403442 -118.415799 145 1606ft 0kts
03-Dec-17 09:40 33.403442 -118.415799 145 1606ft 0kts
03-Dec-17 09:41 33.403442 -118.415799 145 1606ft 0kts
03-Dec-17 09:42 33.403442 -118.415799 145 1606ft 0kts
03-Dec-17 09:43 33.403442 -118.415799 145 1606ft 0kts
03-Dec-17 09:44 33.403442 -118.415799 145 1606ft 0kts

Navigation Log

Ident Type
1. KSNA Airport
2. KAVX Airport